createdAt,value
2023-03-26T00:00:54.059Z,94375.69
2023-03-26T00:03:20.368Z,94375.88
2023-03-26T00:05:46.747Z,94372.72
2023-03-26T00:08:13.093Z,94378.78
2023-03-26T00:10:39.420Z,94385.16
2023-03-26T00:13:05.744Z,94366.41
2023-03-26T00:15:32.056Z,94366.59
2023-03-26T00:17:58.437Z,94371.47
2023-03-26T00:20:24.778Z,94379.53
2023-03-26T00:22:51.096Z,94381.09
2023-03-26T00:25:17.432Z,94376.47
2023-03-26T00:27:43.763Z,94371.00
2023-03-26T00:30:10.072Z,94373.19
2023-03-26T00:32:36.421Z,94367.94
2023-03-26T00:35:02.790Z,94363.41
2023-03-26T00:37:29.126Z,94359.97
2023-03-26T00:39:55.455Z,94351.16
2023-03-26T00:42:27.277Z,94349.91
2023-03-26T00:44:53.594Z,94348.56
2023-03-26T00:47:19.946Z,94360.09
2023-03-26T00:49:46.256Z,94351.19
2023-03-26T00:52:12.564Z,94337.31
2023-03-26T00:54:38.884Z,94335.84
2023-03-26T00:57:05.238Z,94331.19
2023-03-26T00:59:31.564Z,94330.22
2023-03-26T01:01:57.941Z,94320.03
2023-03-26T01:04:24.527Z,94314.25
2023-03-26T01:06:50.957Z,94313.44
2023-03-26T01:09:17.324Z,94306.66
2023-03-26T01:11:43.674Z,94308.28
2023-03-26T01:14:09.979Z,94298.13
2023-03-26T01:16:36.295Z,94279.38
2023-03-26T01:19:02.630Z,94285.50
2023-03-26T01:21:28.940Z,94275.41
2023-03-26T01:23:55.246Z,94260.66
2023-03-26T01:26:21.549Z,94259.25
2023-03-26T01:28:47.903Z,94263.34
2023-03-26T01:31:14.218Z,94266.13
2023-03-26T01:33:40.590Z,94266.47
2023-03-26T01:36:07.120Z,94272.66
2023-03-26T01:38:33.467Z,94262.97
2023-03-26T01:40:59.776Z,94258.44
2023-03-26T01:43:26.108Z,94243.25
2023-03-26T01:45:52.688Z,94242.91
2023-03-26T01:48:19.177Z,94231.22
2023-03-26T01:50:45.509Z,94231.63
2023-03-26T01:53:11.827Z,94221.13
2023-03-26T01:55:38.157Z,94207.44
2023-03-26T01:58:04.458Z,94206.22
2023-03-26T02:00:30.760Z,94201.28
2023-03-26T02:02:57.191Z,94197.03
2023-03-26T02:05:23.577Z,94195.50
2023-03-26T02:07:49.877Z,94182.34
2023-03-26T02:10:16.174Z,94182.41
2023-03-26T02:12:42.494Z,94183.09
2023-03-26T02:15:08.826Z,94184.56
2023-03-26T02:17:35.201Z,94176.03
2023-03-26T02:20:01.531Z,94168.41
2023-03-26T02:22:27.829Z,94172.59
2023-03-26T02:24:54.132Z,94159.69
2023-03-26T02:27:20.497Z,94147.06
2023-03-26T02:29:46.834Z,94146.41
2023-03-26T02:32:13.145Z,94137.72
2023-03-26T02:34:39.450Z,94129.34
2023-03-26T02:37:05.771Z,94129.34
2023-03-26T02:39:32.110Z,94131.63
2023-03-26T02:41:58.423Z,94119.44
2023-03-26T02:44:24.734Z,94124.09
2023-03-26T02:46:51.060Z,94115.81
2023-03-26T02:49:17.387Z,94115.81
2023-03-26T02:51:43.709Z,94106.09
2023-03-26T02:54:10.043Z,94102.25
2023-03-26T02:56:36.363Z,94105.75
2023-03-26T02:59:02.701Z,94092.16
2023-03-26T03:01:29.083Z,94080.13
2023-03-26T03:03:55.390Z,94090.91
2023-03-26T03:06:21.698Z,94080.00
2023-03-26T03:08:48.005Z,94076.75
2023-03-26T03:11:14.788Z,94080.34
2023-03-26T03:13:41.292Z,94079.03
2023-03-26T03:16:07.610Z,94073.28
2023-03-26T03:18:33.948Z,94063.69
2023-03-26T03:21:00.293Z,94056.44
2023-03-26T03:23:26.612Z,94040.97
2023-03-26T03:25:53.132Z,94045.44
2023-03-26T03:28:19.861Z,94046.03
2023-03-26T03:30:46.222Z,94042.22
2023-03-26T03:33:12.544Z,94054.47
2023-03-26T03:35:38.895Z,94050.84
2023-03-26T03:38:05.267Z,94039.00
2023-03-26T03:40:31.594Z,94025.56
2023-03-26T03:42:57.925Z,94031.31
2023-03-26T03:45:24.257Z,94021.00
2023-03-26T03:47:50.589Z,94020.88
2023-03-26T03:50:16.972Z,94017.72
2023-03-26T03:52:43.284Z,94014.44
2023-03-26T03:55:09.589Z,94019.06
2023-03-26T03:57:35.898Z,94000.81
2023-03-26T04:00:03.134Z,94005.47
2023-03-26T04:02:30.483Z,94005.50
2023-03-26T04:04:56.909Z,94013.97
2023-03-26T04:07:23.228Z,94006.63
2023-03-26T04:09:49.533Z,93994.69
2023-03-26T04:12:15.844Z,93978.63
2023-03-26T04:14:42.181Z,93986.38
2023-03-26T04:17:08.482Z,93984.59
2023-03-26T04:19:34.788Z,94008.22
2023-03-26T04:22:01.124Z,93999.06
2023-03-26T04:24:27.430Z,93990.56
2023-03-26T04:26:53.737Z,93981.69
2023-03-26T04:29:20.141Z,93984.59
2023-03-26T04:31:46.479Z,93977.00
2023-03-26T04:34:12.888Z,93971.00
2023-03-26T04:36:39.204Z,93969.38
2023-03-26T04:39:05.541Z,93971.00
2023-03-26T04:41:31.870Z,93976.13
2023-03-26T04:43:58.195Z,93979.00
2023-03-26T04:46:24.552Z,93973.09
2023-03-26T04:48:50.908Z,93967.63
2023-03-26T04:51:17.248Z,93969.50
2023-03-26T04:53:43.546Z,93954.72
2023-03-26T04:56:09.845Z,93952.94
2023-03-26T04:58:36.152Z,93960.03
2023-03-26T05:01:09.787Z,93958.06
2023-03-26T05:03:36.911Z,93952.66
2023-03-26T05:06:03.225Z,93964.00
2023-03-26T05:08:29.706Z,93965.16
2023-03-26T05:10:56.239Z,93966.22
2023-03-26T05:13:22.728Z,93961.16
2023-03-26T05:15:49.048Z,93958.34
2023-03-26T05:18:15.348Z,93964.47
2023-03-26T05:20:41.648Z,93961.47
2023-03-26T05:23:07.990Z,93939.28
2023-03-26T05:25:34.316Z,93958.56
2023-03-26T05:28:00.618Z,93954.75
2023-03-26T05:30:26.947Z,93929.38
2023-03-26T05:32:53.324Z,93935.81
2023-03-26T05:35:19.796Z,93927.66
2023-03-26T05:37:46.154Z,93924.31
2023-03-26T05:40:12.452Z,93909.78
2023-03-26T05:42:38.777Z,93906.91
2023-03-26T05:45:05.104Z,93905.72
2023-03-26T05:47:31.511Z,93904.97
2023-03-26T05:49:57.884Z,93910.06
2023-03-26T05:52:24.216Z,93910.72
2023-03-26T05:54:50.532Z,93910.22
2023-03-26T05:57:16.897Z,93897.25
2023-03-26T05:59:43.220Z,93924.94
2023-03-26T06:02:09.546Z,93924.72
2023-03-26T06:04:35.976Z,93950.59
2023-03-26T06:07:02.399Z,93949.38
2023-03-26T06:09:28.712Z,93957.84
2023-03-26T06:11:55.013Z,93943.94
2023-03-26T06:14:21.327Z,93946.69
2023-03-26T06:16:47.653Z,93937.19
2023-03-26T06:19:13.996Z,93930.53
2023-03-26T06:21:40.340Z,93927.63
2023-03-26T06:24:06.652Z,93937.03
2023-03-26T06:26:32.983Z,93934.44
2023-03-26T06:28:59.305Z,93931.88
2023-03-26T06:31:25.712Z,93935.63
2023-03-26T06:33:52.041Z,93931.13
2023-03-26T06:36:18.388Z,93932.81
2023-03-26T06:38:44.758Z,93927.56
2023-03-26T06:41:11.076Z,93922.53
2023-03-26T06:43:37.477Z,93916.50
2023-03-26T06:46:03.965Z,93909.22
2023-03-26T06:48:30.376Z,93910.06
2023-03-26T06:50:56.712Z,93900.56
2023-03-26T06:53:23.048Z,93900.22
2023-03-26T06:55:49.376Z,93897.19
2023-03-26T06:58:15.712Z,93887.06
2023-03-26T07:00:42.034Z,93895.75
2023-03-26T07:03:08.384Z,93867.25
2023-03-26T07:05:34.708Z,93882.41
2023-03-26T07:08:01.011Z,93879.78
2023-03-26T07:10:27.329Z,93883.63
2023-03-26T07:12:53.657Z,93890.19
2023-03-26T07:15:19.965Z,93884.50
2023-03-26T07:17:46.304Z,93898.66
2023-03-26T07:20:12.623Z,93901.91
2023-03-26T07:22:38.933Z,93892.81
2023-03-26T07:25:05.230Z,93890.19
2023-03-26T07:27:31.543Z,93886.34
2023-03-26T07:29:57.860Z,93882.91
2023-03-26T07:32:24.215Z,93881.06
2023-03-26T07:34:50.556Z,93876.22
2023-03-26T07:37:16.868Z,93870.75
2023-03-26T07:39:43.187Z,93872.22
2023-03-26T07:42:09.510Z,93878.03
2023-03-26T07:44:36.024Z,93878.69
2023-03-26T07:47:02.377Z,93881.50
2023-03-26T07:49:28.692Z,93902.31
2023-03-26T07:51:55.020Z,93903.72
2023-03-26T07:54:21.327Z,93918.13
2023-03-26T07:56:47.682Z,93911.63
2023-03-26T07:59:14.017Z,93883.91
2023-03-26T08:01:40.329Z,93869.31
2023-03-26T08:04:23.772Z,93869.16
2023-03-26T08:06:52.679Z,93886.53
2023-03-26T08:09:19.011Z,93899.25
2023-03-26T08:11:45.376Z,93906.13
2023-03-26T08:14:11.713Z,93902.69
2023-03-26T08:16:38.026Z,93899.59
2023-03-26T08:19:04.325Z,93901.00
2023-03-26T08:21:30.641Z,93891.47
2023-03-26T08:23:56.991Z,93905.63
2023-03-26T08:26:23.306Z,93901.59
2023-03-26T08:28:49.626Z,93914.16
2023-03-26T08:31:15.970Z,93909.91
2023-03-26T08:33:42.341Z,93930.00
2023-03-26T08:36:08.649Z,93921.31
2023-03-26T08:38:34.971Z,93924.38
2023-03-26T08:41:01.284Z,93904.00
2023-03-26T08:43:27.586Z,93892.72
2023-03-26T08:45:53.906Z,93884.03
2023-03-26T08:48:20.232Z,93890.72
2023-03-26T08:50:46.569Z,93896.59
2023-03-26T08:53:12.889Z,93882.06
2023-03-26T08:55:39.228Z,93874.81
2023-03-26T08:58:05.548Z,93886.75
2023-03-26T09:00:31.864Z,93875.81
2023-03-26T09:02:58.237Z,93880.69
2023-03-26T09:05:24.605Z,93893.47
2023-03-26T09:07:50.930Z,93914.13
2023-03-26T09:10:17.238Z,93911.47
2023-03-26T09:12:43.570Z,93937.38
2023-03-26T09:15:09.891Z,93934.13
2023-03-26T09:17:36.223Z,93936.34
2023-03-26T09:20:02.576Z,93921.53
2023-03-26T09:22:28.923Z,93911.22
2023-03-26T09:24:55.235Z,93906.78
2023-03-26T09:27:21.573Z,93907.38
2023-03-26T09:29:47.888Z,93915.69
2023-03-26T09:32:14.198Z,93912.06
2023-03-26T09:34:40.522Z,93910.47
2023-03-26T09:37:06.854Z,93907.03
2023-03-26T09:39:33.166Z,93911.91
2023-03-26T09:41:59.479Z,93909.91
2023-03-26T09:44:25.801Z,93902.16
2023-03-26T09:46:52.133Z,93900.56
2023-03-26T09:49:18.478Z,93893.41
2023-03-26T09:51:44.793Z,93891.75
2023-03-26T09:54:12.172Z,93886.31
2023-03-26T09:56:39.615Z,93894.97
2023-03-26T09:59:06.192Z,93901.31
2023-03-26T10:01:32.519Z,93896.84
2023-03-26T10:03:58.859Z,93897.47
2023-03-26T10:06:25.195Z,93870.75
2023-03-26T10:08:51.512Z,93884.88
2023-03-26T10:11:17.855Z,93874.41
2023-03-26T10:13:44.158Z,93881.09
2023-03-26T10:16:10.599Z,93883.13
2023-03-26T10:18:36.972Z,93879.66
2023-03-26T10:21:03.315Z,93855.81
2023-03-26T10:23:29.618Z,93869.75
2023-03-26T10:25:55.924Z,93872.81
2023-03-26T10:28:22.249Z,93877.88
2023-03-26T10:30:48.602Z,93876.66
2023-03-26T10:33:14.934Z,93886.41
2023-03-26T10:35:41.264Z,93897.25
2023-03-26T10:38:07.621Z,93898.41
2023-03-26T10:40:33.930Z,93913.72
2023-03-26T10:43:00.241Z,93916.94
2023-03-26T10:45:26.555Z,93921.53
2023-03-26T10:47:52.908Z,93922.25
2023-03-26T10:50:23.666Z,93943.50
2023-03-26T10:52:50.201Z,93926.16
2023-03-26T10:55:16.515Z,93926.19
2023-03-26T10:57:42.819Z,93928.22
2023-03-26T11:00:09.128Z,93930.84
2023-03-26T11:02:35.451Z,93915.63
2023-03-26T11:05:01.753Z,93900.44
2023-03-26T11:07:28.077Z,93902.47
2023-03-26T11:09:54.398Z,93911.38
2023-03-26T11:12:26.584Z,93908.75
2023-03-26T11:14:54.569Z,93903.31
2023-03-26T11:17:40.663Z,93905.94
2023-03-26T11:20:07.160Z,93911.81
2023-03-26T11:22:33.487Z,93915.69
2023-03-26T11:24:59.818Z,93897.22
2023-03-26T11:27:26.536Z,93896.41
2023-03-26T11:29:52.948Z,93885.50
2023-03-26T11:32:19.313Z,93869.56
2023-03-26T11:34:45.971Z,93879.50
2023-03-26T11:37:12.277Z,93870.81
2023-03-26T11:39:38.600Z,93872.41
2023-03-26T11:42:04.929Z,93866.34
2023-03-26T11:44:31.250Z,93869.41
2023-03-26T11:46:57.578Z,93859.88
2023-03-26T11:49:23.946Z,93859.88
2023-03-26T11:51:50.288Z,93846.50
2023-03-26T11:54:16.608Z,93855.41
2023-03-26T11:57:05.755Z,93841.00
2023-03-26T11:59:29.217Z,93841.44
2023-03-26T12:01:55.571Z,93845.25
2023-03-26T12:04:21.891Z,93830.50
2023-03-26T12:06:48.238Z,93828.84
2023-03-26T12:09:14.534Z,93828.03
2023-03-26T12:11:40.852Z,93826.44
2023-03-26T12:14:07.156Z,93825.41
2023-03-26T12:16:33.507Z,93821.16
2023-03-26T12:18:59.866Z,93832.94
2023-03-26T12:21:26.181Z,93823.16
2023-03-26T12:23:52.547Z,93820.34
2023-03-26T12:26:18.854Z,93816.50
2023-03-26T12:28:45.168Z,93824.00
2023-03-26T12:31:11.551Z,93817.66
2023-03-26T12:33:37.922Z,93836.09
2023-03-26T12:36:04.283Z,93833.75
2023-03-26T12:38:30.622Z,93839.25
2023-03-26T12:40:56.919Z,93833.78
2023-03-26T12:44:49.665Z,93836.88
2023-03-26T12:47:56.097Z,93835.59
2023-03-26T12:48:55.901Z,93848.78
2023-03-26T12:51:22.312Z,93868.16
2023-03-26T12:53:48.640Z,93910.19
2023-03-26T12:56:14.950Z,93951.84
2023-03-26T12:58:41.283Z,93917.97
2023-03-26T13:01:07.619Z,93889.31
2023-03-26T13:03:33.971Z,93832.59
2023-03-26T13:06:00.356Z,93837.38
2023-03-26T13:08:26.701Z,93829.63
2023-03-26T13:10:53.167Z,93832.06
2023-03-26T13:13:19.533Z,93830.97
2023-03-26T13:15:45.828Z,93816.22
2023-03-26T13:18:12.135Z,93796.44
2023-03-26T13:20:38.461Z,93791.31
2023-03-26T13:23:04.782Z,93785.63
2023-03-26T13:25:31.081Z,93791.75
2023-03-26T13:27:57.399Z,93795.75
2023-03-26T13:30:23.702Z,93799.03
2023-03-26T13:32:50.036Z,93792.38
2023-03-26T13:35:16.430Z,93800.78
2023-03-26T13:37:42.768Z,93816.75
2023-03-26T13:40:09.092Z,93812.13
2023-03-26T13:42:35.432Z,93816.53
2023-03-26T13:45:04.626Z,93815.06
2023-03-26T13:47:32.283Z,93820.72
2023-03-26T13:49:58.682Z,93828.28
2023-03-26T13:52:25.022Z,93823.25
2023-03-26T13:54:51.393Z,93827.59
2023-03-26T13:57:17.736Z,93819.00
2023-03-26T13:59:44.136Z,93828.72
2023-03-26T14:02:10.441Z,93832.59
2023-03-26T14:04:36.744Z,93847.88
2023-03-26T14:07:03.054Z,93837.31
2023-03-26T14:09:29.347Z,93849.56
2023-03-26T14:11:55.647Z,93860.91
2023-03-26T14:14:21.945Z,93852.84
2023-03-26T14:16:48.252Z,93848.59
2023-03-26T14:19:14.576Z,93835.66
2023-03-26T14:21:40.888Z,93848.53
2023-03-26T14:24:07.195Z,93849.19
2023-03-26T14:26:33.489Z,93848.72
2023-03-26T14:28:59.804Z,93849.84
2023-03-26T14:31:26.153Z,93848.91
2023-03-26T14:33:52.493Z,93851.81
2023-03-26T14:36:18.848Z,93851.88
2023-03-26T14:38:45.160Z,93846.44
2023-03-26T14:43:46.787Z,93851.41
2023-03-26T14:46:13.167Z,93845.97
2023-03-26T14:48:39.589Z,93856.38
2023-03-26T14:51:05.949Z,93839.78
2023-03-26T14:53:32.282Z,93845.44
2023-03-26T14:55:58.604Z,93848.50
2023-03-26T14:58:24.909Z,93842.41
2023-03-26T15:00:51.257Z,93844.22
2023-03-26T15:03:17.660Z,93846.84
2023-03-26T15:05:44.021Z,93843.03
2023-03-26T15:08:10.346Z,93838.56
2023-03-26T15:10:36.680Z,93842.81
2023-03-26T15:13:02.996Z,93826.63
2023-03-26T15:15:29.316Z,93828.63
2023-03-26T15:17:55.704Z,93821.94
2023-03-26T15:20:22.043Z,93816.25
2023-03-26T15:22:48.374Z,93824.78
2023-03-26T15:25:14.825Z,93820.88
2023-03-26T15:27:41.263Z,93826.22
2023-03-26T15:30:07.571Z,93816.41
2023-03-26T15:32:33.944Z,93817.44
2023-03-26T15:35:00.294Z,93831.78
2023-03-26T15:37:26.618Z,93834.06
2023-03-26T15:39:59.177Z,93828.22
2023-03-26T15:42:26.677Z,93829.66
2023-03-26T15:44:54.091Z,93824.00
2023-03-26T15:47:20.807Z,93818.53
2023-03-26T15:49:47.126Z,93817.94
2023-03-26T15:52:13.449Z,93810.00
2023-03-26T15:54:39.752Z,93804.50
2023-03-26T15:57:06.129Z,93803.09
2023-03-26T15:59:32.457Z,93829.06
2023-03-26T16:01:58.788Z,93820.75
2023-03-26T16:04:25.099Z,93828.44
2023-03-26T16:06:51.445Z,93820.75
2023-03-26T16:09:17.757Z,93817.91
2023-03-26T16:11:44.062Z,93821.13
2023-03-26T16:14:10.394Z,93819.91
2023-03-26T16:16:36.696Z,93818.72
2023-03-26T16:19:03.012Z,93807.75
2023-03-26T16:21:31.410Z,93824.38
2023-03-26T16:23:58.885Z,93815.69
2023-03-26T16:26:25.201Z,93805.94
2023-03-26T16:28:51.530Z,93809.38
2023-03-26T16:31:36.820Z,93797.06
2023-03-26T16:34:04.129Z,93788.34
2023-03-26T16:36:30.432Z,93783.47
2023-03-26T16:38:56.763Z,93772.94
2023-03-26T16:41:23.062Z,93769.47
2023-03-26T16:43:49.404Z,93770.28
2023-03-26T16:46:15.752Z,93758.75
2023-03-26T16:48:42.055Z,93755.91
2023-03-26T16:51:08.394Z,93749.84
2023-03-26T16:53:34.715Z,93753.50
2023-03-26T16:56:01.058Z,93755.53
2023-03-26T16:58:27.396Z,93761.78
2023-03-26T17:00:53.964Z,93759.59
2023-03-26T17:03:20.573Z,93755.13
2023-03-26T17:05:47.021Z,93750.84
2023-03-26T17:08:13.410Z,93744.59
2023-03-26T17:10:39.749Z,93749.03
2023-03-26T17:13:06.088Z,93747.97
2023-03-26T17:15:32.412Z,93742.13
2023-03-26T17:17:58.823Z,93746.56
2023-03-26T17:20:25.196Z,93755.25
2023-03-26T17:22:51.519Z,93760.13
2023-03-26T17:25:17.831Z,93760.34
2023-03-26T17:27:44.152Z,93764.34
2023-03-26T17:30:10.781Z,93764.59
2023-03-26T17:32:37.298Z,93765.56
2023-03-26T17:35:07.995Z,93763.75
2023-03-26T17:37:34.346Z,93751.81
2023-03-26T17:40:00.670Z,93747.19
2023-03-26T17:42:26.984Z,93753.84
2023-03-26T17:44:53.322Z,93754.63
2023-03-26T17:47:19.654Z,93758.28
2023-03-26T17:49:45.988Z,93740.50
2023-03-26T17:52:12.340Z,93744.34
2023-03-26T17:54:38.654Z,93743.09
2023-03-26T17:57:04.967Z,93752.19
2023-03-26T17:59:31.320Z,93745.72
2023-03-26T18:01:57.651Z,93752.00
2023-03-26T18:04:24.007Z,93747.13
2023-03-26T18:06:50.333Z,93745.88
2023-03-26T18:09:16.633Z,93744.28
2023-03-26T18:11:42.946Z,93733.72
2023-03-26T18:14:09.262Z,93728.06
2023-03-26T18:16:35.623Z,93721.41
2023-03-26T18:19:01.935Z,93717.34
2023-03-26T18:21:28.266Z,93717.19
2023-03-26T18:23:54.590Z,93720.16
2023-03-26T18:26:26.368Z,93717.19
2023-03-26T18:28:52.692Z,93722.63
2023-03-26T18:31:19.055Z,93726.66
2023-03-26T18:33:45.507Z,93721.00
2023-03-26T18:36:11.949Z,93724.25
2023-03-26T18:38:40.018Z,93730.75
2023-03-26T18:41:07.517Z,93743.28
2023-03-26T18:43:35.223Z,93738.25
2023-03-26T18:46:02.109Z,93752.00
2023-03-26T18:48:28.457Z,93754.41
2023-03-26T18:50:55.117Z,93759.66
2023-03-26T18:53:21.676Z,93769.75
2023-03-26T18:55:48.006Z,93751.38
2023-03-26T18:58:14.321Z,93757.31
2023-03-26T19:00:40.622Z,93750.56
2023-03-26T19:03:07.028Z,93742.22
2023-03-26T19:05:33.418Z,93745.31
2023-03-26T19:07:59.730Z,93743.19
2023-03-26T19:10:26.033Z,93748.84
2023-03-26T19:12:52.347Z,93752.53
2023-03-26T19:15:18.682Z,93756.03
2023-03-26T19:17:45.056Z,93755.41
2023-03-26T19:20:11.420Z,93756.22
2023-03-26T19:22:37.729Z,93759.19
2023-03-26T19:25:04.043Z,93755.56
2023-03-26T19:27:30.368Z,93755.91
2023-03-26T19:29:56.674Z,93752.13
2023-03-26T19:32:23.023Z,93752.53
2023-03-26T19:34:49.351Z,93749.84
2023-03-26T19:37:15.679Z,93759.47
2023-03-26T19:39:42.035Z,93765.06
2023-03-26T19:42:08.349Z,93759.59
2023-03-26T19:44:34.680Z,93763.56
2023-03-26T19:47:01.027Z,93757.69
2023-03-26T19:49:28.511Z,93759.66
2023-03-26T19:51:54.997Z,93761.88
2023-03-26T19:54:21.312Z,93776.28
2023-03-26T19:56:47.695Z,93775.78
2023-03-26T19:59:14.035Z,93776.47
2023-03-26T20:01:40.378Z,93772.97
2023-03-26T20:04:06.781Z,93776.78
2023-03-26T20:06:43.056Z,93785.19
2023-03-26T20:09:10.325Z,93781.09
2023-03-26T20:11:36.687Z,93781.16
2023-03-26T20:14:03.013Z,93785.72
2023-03-26T20:16:29.415Z,93783.91
2023-03-26T20:18:55.784Z,93787.53
2023-03-26T20:21:22.118Z,93778.47
2023-03-26T20:23:48.426Z,93773.03
2023-03-26T20:26:14.734Z,93773.94
2023-03-26T20:28:47.793Z,93767.09
2023-03-26T20:31:15.079Z,93772.34
2023-03-26T20:33:41.445Z,93770.34
2023-03-26T20:36:07.787Z,93775.16
2023-03-26T20:38:39.386Z,93784.81
2023-03-26T20:41:06.393Z,93779.97
2023-03-26T20:43:32.712Z,93791.19
2023-03-26T20:45:59.007Z,93788.75
2023-03-26T20:48:25.374Z,93782.25
2023-03-26T20:50:51.700Z,93797.78
2023-03-26T20:53:18.010Z,93795.53
2023-03-26T20:55:44.310Z,93796.53
2023-03-26T20:58:10.656Z,93805.00
2023-03-26T21:00:36.987Z,93804.00
2023-03-26T21:03:03.336Z,93810.06
2023-03-26T21:05:29.674Z,93808.91
2023-03-26T21:07:56.003Z,93806.09
2023-03-26T21:10:22.295Z,93812.38
2023-03-26T21:12:48.634Z,93816.69
2023-03-26T21:15:23.074Z,93815.22
2023-03-26T21:17:50.181Z,93818.84
2023-03-26T21:20:16.546Z,93839.63
2023-03-26T21:22:42.869Z,93829.38
2023-03-26T21:25:09.242Z,93815.06
2023-03-26T21:27:35.555Z,93825.34
2023-03-26T21:30:01.859Z,93828.06
2023-03-26T21:32:28.194Z,93826.88
2023-03-26T21:37:23.757Z,93835.38
2023-03-26T21:39:50.086Z,93842.78
2023-03-26T21:42:16.428Z,93852.38
2023-03-26T21:44:42.725Z,93852.56
2023-03-26T21:47:09.903Z,93852.25
2023-03-26T21:49:36.333Z,93857.69
2023-03-26T21:52:02.653Z,93862.03
2023-03-26T21:54:28.959Z,93868.78
2023-03-26T21:56:55.330Z,93871.78
2023-03-26T21:59:21.663Z,93869.41
2023-03-26T22:01:48.025Z,93868.00
2023-03-26T22:04:14.340Z,93861.66
2023-03-26T22:06:40.661Z,93866.00
2023-03-26T22:09:06.986Z,93870.25
2023-03-26T22:11:33.297Z,93877.28
2023-03-26T22:13:59.630Z,93890.66
2023-03-26T22:16:25.985Z,93879.66
2023-03-26T22:18:52.334Z,93895.72
2023-03-26T22:21:18.650Z,93892.09
2023-03-26T22:23:44.950Z,93895.72
2023-03-26T22:26:11.262Z,93900.53
2023-03-26T22:28:37.609Z,93901.66
2023-03-26T22:31:03.952Z,93904.91
2023-03-26T22:33:30.312Z,93907.16
2023-03-26T22:35:56.656Z,93911.41
2023-03-26T22:38:22.998Z,93918.56
2023-03-26T22:40:49.347Z,93910.75
2023-03-26T22:43:15.670Z,93920.44
2023-03-26T22:45:41.991Z,93918.38
2023-03-26T22:48:08.423Z,93921.06
2023-03-26T22:50:34.761Z,93929.19
2023-03-26T22:53:01.091Z,93935.09
2023-03-26T22:55:28.956Z,93931.56
2023-03-26T22:57:56.128Z,93935.16
2023-03-26T23:00:22.436Z,93953.16
2023-03-26T23:02:48.893Z,93941.25
2023-03-26T23:05:15.296Z,93940.34
2023-03-26T23:07:41.611Z,93944.69
2023-03-26T23:10:07.932Z,93952.66
2023-03-26T23:12:34.269Z,93955.81
2023-03-26T23:15:00.569Z,93959.63
2023-03-26T23:17:26.968Z,93957.09
2023-03-26T23:19:53.298Z,93966.94
2023-03-26T23:22:19.618Z,93963.75
2023-03-26T23:24:45.940Z,93962.22
2023-03-26T23:27:12.254Z,93972.34
2023-03-26T23:29:38.551Z,93979.16
2023-03-26T23:32:24.484Z,93980.78
2023-03-26T23:34:51.942Z,93988.22
2023-03-26T23:37:18.866Z,94002.16
2023-03-26T23:39:45.161Z,94004.59
2023-03-26T23:42:11.483Z,94008.91
2023-03-26T23:44:37.790Z,94018.97
2023-03-26T23:47:04.090Z,94017.63
2023-03-26T23:49:30.404Z,94029.03
2023-03-26T23:51:56.757Z,94033.63
2023-03-26T23:54:23.085Z,94040.41
2023-03-26T23:56:49.459Z,94042.94
2023-03-26T23:59:15.814Z,94036.59
